ITY30G DTTA-LIEO
Flight info
| Callsign | ITY30G |
|---|---|
| Flight time | 0h 54m |
| Altitude | 34000 |
| Route | TOBIB3C TOBIB DCT TANIT DCT OSMAR DCT PIRIX DCT CAR DCT LABOM |
| Aircraft | A320/M-SDE3FGHIRWY/LB1 |
Departure
| Time | 2026-04-28 18:32 |
|---|---|
| Airport | Tunis Carthage International Airport (DTTA) |
Arrival
| Time | 2026-04-28 19:26 |
|---|---|
| Airport | Olbia Costa Smeralda Airport (LIEO) |
| Time | Latitude | Longitude | Altitude | Speed | Heading |
|---|---|---|---|---|---|
| 2026-04-28 18:05 | 36.84525 | 10.21877 | 26 ft | 0 kts | 6° |
| 2026-04-28 18:20 | 36.84517 | 10.21876 | 24 ft | 2 kts | 6° |
| 2026-04-28 18:20 | 36.84501 | 10.21874 | 22 ft | 2 kts | 6° |
| 2026-04-28 18:20 | 36.84485 | 10.21872 | 23 ft | 2 kts | 6° |
| 2026-04-28 18:20 | 36.84469 | 10.21868 | 24 ft | 2 kts | 35° |
| 2026-04-28 18:21 | 36.84458 | 10.21854 | 23 ft | 2 kts | 66° |
| 2026-04-28 18:21 | 36.84453 | 10.21836 | 22 ft | 0 kts | 94° |
| 2026-04-28 18:25 | 36.84453 | 10.21837 | 22 ft | 1 kts | 94° |
| 2026-04-28 18:26 | 36.84364 | 10.21958 | 23 ft | 15 kts | 205° |
| 2026-04-28 18:26 | 36.84260 | 10.21916 | 20 ft | 16 kts | 192° |
| 2026-04-28 18:26 | 36.84141 | 10.21885 | 19 ft | 19 kts | 192° |
| 2026-04-28 18:26 | 36.84007 | 10.21848 | 18 ft | 20 kts | 194° |
| 2026-04-28 18:27 | 36.83911 | 10.21869 | 17 ft | 14 kts | 126° |
| 2026-04-28 18:27 | 36.83883 | 10.21993 | 17 ft | 14 kts | 103° |
| 2026-04-28 18:27 | 36.83877 | 10.22027 | 17 ft | 0 kts | 100° |
| 2026-04-28 18:27 | 36.83904 | 10.22096 | 18 ft | 21 kts | 24° |
| 2026-04-28 18:28 | 36.84104 | 10.22151 | 18 ft | 32 kts | 15° |
| 2026-04-28 18:28 | 36.84321 | 10.22212 | 20 ft | 32 kts | 12° |
| 2026-04-28 18:28 | 36.84484 | 10.22254 | 21 ft | 21 kts | 11° |
| 2026-04-28 18:28 | 36.84632 | 10.22293 | 22 ft | 22 kts | 12° |
| 2026-04-28 18:29 | 36.84786 | 10.22337 | 23 ft | 23 kts | 13° |
| 2026-04-28 18:29 | 36.84946 | 10.22379 | 27 ft | 24 kts | 13° |
| 2026-04-28 18:29 | 36.85017 | 10.22332 | 29 ft | 15 kts | 293° |
| 2026-04-28 18:29 | 36.85061 | 10.22200 | 27 ft | 16 kts | 293° |
| 2026-04-28 18:30 | 36.85101 | 10.22082 | 26 ft | 14 kts | 293° |
| 2026-04-28 18:30 | 36.85125 | 10.22012 | 27 ft | 13 kts | 293° |
| 2026-04-28 18:30 | 36.85172 | 10.21868 | 27 ft | 14 kts | 292° |
| 2026-04-28 18:30 | 36.85210 | 10.21757 | 28 ft | 15 kts | 295° |
| 2026-04-28 18:31 | 36.85298 | 10.21716 | 29 ft | 14 kts | 18° |
| 2026-04-28 18:31 | 36.85387 | 10.21760 | 29 ft | 13 kts | 22° |
| 2026-04-28 18:31 | 36.85415 | 10.21808 | 29 ft | 7 kts | 113° |
| 2026-04-28 18:31 | 36.85393 | 10.21873 | 29 ft | 11 kts | 113° |
| 2026-04-28 18:32 | 36.85301 | 10.22149 | 27 ft | 68 kts | 112° |
| 2026-04-28 18:32 | 36.85037 | 10.22950 | 27 ft | 128 kts | 112° |
| 2026-04-28 18:32 | 36.84643 | 10.24136 | 228 ft | 157 kts | 113° |
| 2026-04-28 18:32 | 36.84205 | 10.25394 | 835 ft | 158 kts | 113° |
| 2026-04-28 18:33 | 36.83782 | 10.26670 | 1467 ft | 165 kts | 114° |
| 2026-04-28 18:33 | 36.83313 | 10.28082 | 1816 ft | 187 kts | 114° |
| 2026-04-28 18:33 | 36.82684 | 10.29602 | 2136 ft | 205 kts | 135° |
| 2026-04-28 18:33 | 36.81412 | 10.30355 | 2684 ft | 210 kts | 178° |
| 2026-04-28 18:34 | 36.80028 | 10.29764 | 3304 ft | 220 kts | 221° |
| 2026-04-28 18:34 | 36.79297 | 10.28101 | 4048 ft | 227 kts | 262° |
| 2026-04-28 18:34 | 36.79612 | 10.26180 | 4809 ft | 235 kts | 301° |
| 2026-04-28 18:34 | 36.80833 | 10.24814 | 5602 ft | 240 kts | 330° |
| 2026-04-28 18:35 | 36.82357 | 10.23950 | 6432 ft | 242 kts | 338° |
| 2026-04-28 18:35 | 36.83944 | 10.23235 | 7181 ft | 244 kts | 338° |
| 2026-04-28 18:35 | 36.85583 | 10.22638 | 7912 ft | 250 kts | 348° |
| 2026-04-28 18:35 | 36.87375 | 10.22247 | 8254 ft | 273 kts | 347° |
| 2026-04-28 18:36 | 36.89302 | 10.21753 | 8762 ft | 288 kts | 345° |
| 2026-04-28 18:36 | 36.91272 | 10.21198 | 9562 ft | 292 kts | 344° |
| 2026-04-28 18:36 | 36.93260 | 10.20604 | 10291 ft | 299 kts | 343° |
| 2026-04-28 18:36 | 36.95328 | 10.19959 | 10530 ft | 322 kts | 342° |
| 2026-04-28 18:37 | 36.97596 | 10.19233 | 10881 ft | 339 kts | 342° |
| 2026-04-28 18:37 | 36.99871 | 10.18507 | 11518 ft | 345 kts | 343° |
| 2026-04-28 18:37 | 37.02216 | 10.17770 | 12262 ft | 349 kts | 343° |
| 2026-04-28 18:37 | 37.04584 | 10.17035 | 13036 ft | 351 kts | 343° |
| 2026-04-28 18:38 | 37.06964 | 10.16300 | 13782 ft | 354 kts | 343° |
| 2026-04-28 18:38 | 37.09369 | 10.15557 | 14426 ft | 357 kts | 343° |
| 2026-04-28 18:38 | 37.11794 | 10.14804 | 15047 ft | 360 kts | 343° |
| 2026-04-28 18:38 | 37.14241 | 10.14040 | 15645 ft | 364 kts | 343° |
| 2026-04-28 18:39 | 37.16711 | 10.13268 | 16259 ft | 368 kts | 343° |
| 2026-04-28 18:39 | 37.19204 | 10.12488 | 16861 ft | 371 kts | 343° |
| 2026-04-28 18:39 | 37.21721 | 10.11701 | 17456 ft | 375 kts | 343° |
| 2026-04-28 18:39 | 37.24265 | 10.10906 | 18043 ft | 379 kts | 343° |
| 2026-04-28 18:40 | 37.26833 | 10.10100 | 18613 ft | 382 kts | 342° |
| 2026-04-28 18:40 | 37.29425 | 10.09282 | 19145 ft | 385 kts | 343° |
| 2026-04-28 18:40 | 37.32037 | 10.08459 | 19672 ft | 389 kts | 343° |
| 2026-04-28 18:40 | 37.34669 | 10.07630 | 20210 ft | 392 kts | 343° |
| 2026-04-28 18:41 | 37.37328 | 10.06794 | 20741 ft | 395 kts | 343° |
| 2026-04-28 18:41 | 37.40001 | 10.05952 | 21274 ft | 398 kts | 343° |
| 2026-04-28 18:41 | 37.42697 | 10.05103 | 21797 ft | 401 kts | 343° |
| 2026-04-28 18:41 | 37.45416 | 10.04249 | 22308 ft | 404 kts | 343° |
| 2026-04-28 18:42 | 37.48152 | 10.03391 | 22815 ft | 407 kts | 343° |
| 2026-04-28 18:42 | 37.50876 | 10.02536 | 23291 ft | 410 kts | 343° |
| 2026-04-28 18:42 | 37.53648 | 10.01663 | 23734 ft | 413 kts | 343° |
| 2026-04-28 18:42 | 37.56446 | 10.00778 | 24136 ft | 415 kts | 343° |
| 2026-04-28 18:43 | 37.59253 | 9.99887 | 24533 ft | 417 kts | 343° |
| 2026-04-28 18:43 | 37.62079 | 9.98990 | 24916 ft | 419 kts | 342° |
| 2026-04-28 18:43 | 37.64923 | 9.98085 | 25280 ft | 422 kts | 342° |
| 2026-04-28 18:43 | 37.67769 | 9.97179 | 25649 ft | 424 kts | 342° |
| 2026-04-28 18:44 | 37.70640 | 9.96266 | 26010 ft | 426 kts | 342° |
| 2026-04-28 18:44 | 37.76422 | 9.94430 | 26718 ft | 430 kts | 342° |
| 2026-04-28 18:44 | 37.79327 | 9.93505 | 27079 ft | 433 kts | 342° |
| 2026-04-28 18:45 | 37.82258 | 9.92571 | 27416 ft | 435 kts | 342° |
| 2026-04-28 18:45 | 37.85202 | 9.91635 | 27750 ft | 437 kts | 342° |
| 2026-04-28 18:45 | 37.88159 | 9.90697 | 28079 ft | 439 kts | 342° |
| 2026-04-28 18:45 | 37.91130 | 9.89752 | 28399 ft | 441 kts | 342° |
| 2026-04-28 18:46 | 37.94107 | 9.88799 | 28712 ft | 443 kts | 342° |
| 2026-04-28 18:46 | 37.97098 | 9.87838 | 29013 ft | 445 kts | 342° |
| 2026-04-28 18:46 | 38.00113 | 9.86869 | 29303 ft | 447 kts | 342° |
| 2026-04-28 18:46 | 38.03138 | 9.85900 | 29601 ft | 449 kts | 342° |
| 2026-04-28 18:47 | 38.06169 | 9.84930 | 29873 ft | 451 kts | 342° |
| 2026-04-28 18:47 | 38.09220 | 9.83950 | 30131 ft | 453 kts | 342° |
| 2026-04-28 18:47 | 38.12284 | 9.82966 | 30354 ft | 455 kts | 342° |
| 2026-04-28 18:47 | 38.15356 | 9.81979 | 30524 ft | 457 kts | 342° |
| 2026-04-28 18:48 | 38.18450 | 9.80985 | 30715 ft | 459 kts | 342° |
| 2026-04-28 18:48 | 38.21558 | 9.79986 | 30933 ft | 461 kts | 342° |
| 2026-04-28 18:48 | 38.24658 | 9.78990 | 31220 ft | 460 kts | 342° |
| 2026-04-28 18:48 | 38.27759 | 9.77992 | 31517 ft | 458 kts | 342° |
| 2026-04-28 18:49 | 38.30847 | 9.77000 | 31833 ft | 457 kts | 342° |
| 2026-04-28 18:49 | 38.31890 | 9.76665 | 31933 ft | 457 kts | 342° |
| 2026-04-28 18:49 | 38.37018 | 9.75026 | 32416 ft | 456 kts | 342° |
| 2026-04-28 18:49 | 38.40095 | 9.74043 | 32699 ft | 456 kts | 341° |
| 2026-04-28 18:50 | 38.43172 | 9.73057 | 32982 ft | 455 kts | 341° |
| 2026-04-28 18:50 | 38.46244 | 9.72068 | 33270 ft | 455 kts | 341° |
| 2026-04-28 18:50 | 38.49312 | 9.71076 | 33568 ft | 454 kts | 341° |
| 2026-04-28 18:50 | 38.52371 | 9.70085 | 33889 ft | 453 kts | 341° |
| 2026-04-28 18:51 | 38.55427 | 9.69097 | 34000 ft | 451 kts | 341° |
| 2026-04-28 18:51 | 38.58459 | 9.68122 | 34013 ft | 448 kts | 341° |
| 2026-04-28 18:51 | 38.64464 | 9.66185 | 34020 ft | 447 kts | 341° |
| 2026-04-28 18:52 | 38.70496 | 9.64235 | 34019 ft | 447 kts | 341° |
| 2026-04-28 18:52 | 38.76525 | 9.62274 | 34019 ft | 446 kts | 341° |
| 2026-04-28 18:53 | 38.82552 | 9.60306 | 34021 ft | 446 kts | 341° |
| 2026-04-28 18:53 | 38.88570 | 9.58344 | 34024 ft | 446 kts | 341° |
| 2026-04-28 18:54 | 38.94586 | 9.56374 | 34025 ft | 446 kts | 341° |
| 2026-04-28 18:54 | 39.00591 | 9.54360 | 34029 ft | 446 kts | 341° |
| 2026-04-28 18:55 | 39.05574 | 9.52680 | 34027 ft | 446 kts | 342° |
| 2026-04-28 18:55 | 39.12668 | 9.50679 | 34022 ft | 450 kts | 352° |
| 2026-04-28 18:56 | 39.18932 | 9.50163 | 34022 ft | 451 kts | 353° |
| 2026-04-28 18:56 | 39.25168 | 9.49679 | 34029 ft | 451 kts | 353° |
| 2026-04-28 18:57 | 39.31422 | 9.49184 | 34030 ft | 450 kts | 353° |
| 2026-04-28 18:57 | 39.37681 | 9.48674 | 34032 ft | 450 kts | 353° |
| 2026-04-28 18:58 | 39.43933 | 9.48169 | 33959 ft | 450 kts | 353° |
| 2026-04-28 18:58 | 39.47059 | 9.47917 | 33682 ft | 449 kts | 353° |
| 2026-04-28 18:58 | 39.50176 | 9.47664 | 33411 ft | 449 kts | 353° |
| 2026-04-28 18:59 | 39.53294 | 9.47412 | 33150 ft | 449 kts | 353° |
| 2026-04-28 18:59 | 39.56416 | 9.47161 | 32563 ft | 451 kts | 354° |
| 2026-04-28 18:59 | 39.59561 | 9.46906 | 31801 ft | 451 kts | 354° |
| 2026-04-28 18:59 | 39.62666 | 9.46653 | 31250 ft | 445 kts | 354° |
| 2026-04-28 19:00 | 39.65750 | 9.46401 | 30655 ft | 441 kts | 354° |
| 2026-04-28 19:00 | 39.67770 | 9.46235 | 30267 ft | 439 kts | 354° |
| 2026-04-28 19:00 | 39.70819 | 9.45987 | 29619 ft | 436 kts | 354° |
| 2026-04-28 19:00 | 39.73826 | 9.45744 | 29047 ft | 431 kts | 354° |
| 2026-04-28 19:01 | 39.76803 | 9.45502 | 28488 ft | 426 kts | 354° |
| 2026-04-28 19:01 | 39.80705 | 9.45183 | 27735 ft | 421 kts | 354° |
| 2026-04-28 19:01 | 39.83615 | 9.44947 | 27185 ft | 417 kts | 354° |
| 2026-04-28 19:01 | 39.85563 | 9.44787 | 26816 ft | 415 kts | 354° |
| 2026-04-28 19:02 | 39.88446 | 9.44547 | 26278 ft | 412 kts | 354° |
| 2026-04-28 19:02 | 39.91296 | 9.44311 | 25747 ft | 409 kts | 354° |
| 2026-04-28 19:02 | 39.94117 | 9.44077 | 25238 ft | 405 kts | 354° |
| 2026-04-28 19:02 | 39.96929 | 9.43843 | 24735 ft | 403 kts | 354° |
| 2026-04-28 19:03 | 39.99714 | 9.43614 | 24242 ft | 400 kts | 354° |
| 2026-04-28 19:03 | 40.02469 | 9.43388 | 23766 ft | 398 kts | 355° |
| 2026-04-28 19:03 | 40.05187 | 9.43167 | 23258 ft | 396 kts | 355° |
| 2026-04-28 19:03 | 40.07951 | 9.42945 | 22784 ft | 392 kts | 354° |
| 2026-04-28 19:04 | 40.10635 | 9.42729 | 22318 ft | 388 kts | 355° |
| 2026-04-28 19:04 | 40.13315 | 9.42511 | 21875 ft | 385 kts | 355° |
| 2026-04-28 19:04 | 40.15998 | 9.42292 | 21402 ft | 382 kts | 355° |
| 2026-04-28 19:04 | 40.18672 | 9.42071 | 20930 ft | 380 kts | 355° |
| 2026-04-28 19:05 | 40.21303 | 9.41854 | 20455 ft | 378 kts | 355° |
| 2026-04-28 19:05 | 40.23918 | 9.41640 | 19988 ft | 376 kts | 355° |
| 2026-04-28 19:05 | 40.26527 | 9.41426 | 19500 ft | 375 kts | 355° |
| 2026-04-28 19:05 | 40.29131 | 9.41209 | 19015 ft | 374 kts | 355° |
| 2026-04-28 19:06 | 40.31694 | 9.40995 | 18536 ft | 374 kts | 355° |
| 2026-04-28 19:06 | 40.34290 | 9.40776 | 18010 ft | 373 kts | 355° |
| 2026-04-28 19:06 | 40.36884 | 9.40624 | 17457 ft | 373 kts | 0° |
| 2026-04-28 19:06 | 40.39464 | 9.41025 | 16913 ft | 374 kts | 12° |
| 2026-04-28 19:07 | 40.41964 | 9.41987 | 16381 ft | 374 kts | 17° |
| 2026-04-28 19:07 | 40.44446 | 9.43017 | 15857 ft | 374 kts | 17° |
| 2026-04-28 19:07 | 40.46927 | 9.44046 | 15341 ft | 373 kts | 17° |
| 2026-04-28 19:07 | 40.49363 | 9.45058 | 14952 ft | 358 kts | 16° |
| 2026-04-28 19:08 | 40.51667 | 9.46017 | 14785 ft | 336 kts | 16° |
| 2026-04-28 19:08 | 40.53843 | 9.46925 | 14436 ft | 322 kts | 15° |
| 2026-04-28 19:08 | 40.55956 | 9.47807 | 13934 ft | 316 kts | 15° |
| 2026-04-28 19:08 | 40.58012 | 9.48787 | 13420 ft | 314 kts | 24° |
| 2026-04-28 19:09 | 40.59891 | 9.50259 | 13003 ft | 315 kts | 36° |
| 2026-04-28 19:09 | 40.61498 | 9.52196 | 12687 ft | 314 kts | 48° |
| 2026-04-28 19:09 | 40.62795 | 9.54478 | 12431 ft | 314 kts | 55° |
| 2026-04-28 19:09 | 40.64034 | 9.56850 | 12317 ft | 314 kts | 55° |
| 2026-04-28 19:10 | 40.65275 | 9.59212 | 12174 ft | 313 kts | 55° |
| 2026-04-28 19:10 | 40.66501 | 9.61537 | 12029 ft | 305 kts | 55° |
| 2026-04-28 19:10 | 40.67751 | 9.63744 | 11899 ft | 294 kts | 43° |
| 2026-04-28 19:10 | 40.69427 | 9.65156 | 11753 ft | 284 kts | 15° |
| 2026-04-28 19:11 | 40.71358 | 9.65418 | 11589 ft | 279 kts | 348° |
| 2026-04-28 19:11 | 40.73143 | 9.64531 | 11411 ft | 273 kts | 324° |
| 2026-04-28 19:11 | 40.74722 | 9.63134 | 11232 ft | 274 kts | 327° |
| 2026-04-28 19:11 | 40.76532 | 9.62363 | 11083 ft | 278 kts | 355° |
| 2026-04-28 19:12 | 40.78458 | 9.62676 | 11014 ft | 282 kts | 12° |
| 2026-04-28 19:12 | 40.80374 | 9.63225 | 11000 ft | 281 kts | 1° |
| 2026-04-28 19:12 | 40.82268 | 9.62851 | 11004 ft | 274 kts | 333° |
| 2026-04-28 19:12 | 40.83776 | 9.61395 | 10997 ft | 268 kts | 306° |
| 2026-04-28 19:13 | 40.84589 | 9.59211 | 10815 ft | 267 kts | 279° |
| 2026-04-28 19:13 | 40.84531 | 9.56804 | 10491 ft | 263 kts | 251° |
| 2026-04-28 19:13 | 40.83635 | 9.54737 | 10156 ft | 260 kts | 226° |
| 2026-04-28 19:13 | 40.82247 | 9.53219 | 9811 ft | 260 kts | 218° |
| 2026-04-28 19:14 | 40.80803 | 9.51781 | 9453 ft | 260 kts | 217° |
| 2026-04-28 19:14 | 40.79359 | 9.50347 | 9094 ft | 259 kts | 217° |
| 2026-04-28 19:14 | 40.77938 | 9.48936 | 9018 ft | 253 kts | 217° |
| 2026-04-28 19:14 | 40.76521 | 9.47525 | 8817 ft | 257 kts | 217° |
| 2026-04-28 19:15 | 40.75103 | 9.46113 | 8498 ft | 254 kts | 217° |
| 2026-04-28 19:15 | 40.73694 | 9.44709 | 8168 ft | 253 kts | 217° |
| 2026-04-28 19:15 | 40.72317 | 9.43337 | 7851 ft | 252 kts | 217° |
| 2026-04-28 19:15 | 40.71369 | 9.42391 | 7635 ft | 251 kts | 216° |
| 2026-04-28 19:16 | 40.69638 | 9.40387 | 7214 ft | 251 kts | 228° |
| 2026-04-28 19:16 | 40.68604 | 9.38538 | 6894 ft | 251 kts | 234° |
| 2026-04-28 19:16 | 40.67616 | 9.36651 | 6583 ft | 250 kts | 233° |
| 2026-04-28 19:16 | 40.66626 | 9.34772 | 6262 ft | 249 kts | 233° |
| 2026-04-28 19:17 | 40.65645 | 9.32920 | 6043 ft | 242 kts | 233° |
| 2026-04-28 19:17 | 40.64697 | 9.31128 | 6024 ft | 237 kts | 233° |
| 2026-04-28 19:17 | 40.63756 | 9.29351 | 6024 ft | 236 kts | 233° |
| 2026-04-28 19:17 | 40.62815 | 9.27573 | 6026 ft | 236 kts | 233° |
| 2026-04-28 19:18 | 40.61878 | 9.25800 | 6032 ft | 237 kts | 233° |
| 2026-04-28 19:18 | 40.61027 | 9.23863 | 6016 ft | 249 kts | 251° |
| 2026-04-28 19:18 | 40.60940 | 9.21681 | 6018 ft | 236 kts | 283° |
| 2026-04-28 19:18 | 40.61711 | 9.19798 | 6031 ft | 237 kts | 308° |
| 2026-04-28 19:19 | 40.62846 | 9.18212 | 6024 ft | 239 kts | 317° |
| 2026-04-28 19:19 | 40.64277 | 9.17131 | 6019 ft | 240 kts | 344° |
| 2026-04-28 19:19 | 40.65933 | 9.17023 | 6023 ft | 240 kts | 13° |
| 2026-04-28 19:19 | 40.67460 | 9.17876 | 6029 ft | 240 kts | 31° |
| 2026-04-28 19:20 | 40.68920 | 9.18952 | 6023 ft | 240 kts | 31° |
| 2026-04-28 19:20 | 40.70382 | 9.20034 | 6028 ft | 241 kts | 30° |
| 2026-04-28 19:20 | 40.71852 | 9.21125 | 5794 ft | 242 kts | 30° |
| 2026-04-28 19:20 | 40.73313 | 9.22207 | 5494 ft | 240 kts | 30° |
| 2026-04-28 19:21 | 40.74751 | 9.23301 | 5194 ft | 238 kts | 37° |
| 2026-04-28 19:21 | 40.75815 | 9.24917 | 5022 ft | 230 kts | 58° |
| 2026-04-28 19:21 | 40.76673 | 9.26637 | 4950 ft | 220 kts | 57° |
| 2026-04-28 19:21 | 40.77529 | 9.28289 | 4683 ft | 217 kts | 57° |
| 2026-04-28 19:22 | 40.78389 | 9.29924 | 4351 ft | 217 kts | 57° |
| 2026-04-28 19:22 | 40.78961 | 9.31008 | 4142 ft | 217 kts | 56° |
| 2026-04-28 19:22 | 40.80085 | 9.33139 | 3748 ft | 208 kts | 56° |
| 2026-04-28 19:22 | 40.80906 | 9.34697 | 3392 ft | 203 kts | 57° |
| 2026-04-28 19:23 | 40.81699 | 9.36204 | 3085 ft | 197 kts | 57° |
| 2026-04-28 19:23 | 40.82462 | 9.37654 | 2765 ft | 188 kts | 57° |
| 2026-04-28 19:23 | 40.83191 | 9.39039 | 2488 ft | 181 kts | 56° |
| 2026-04-28 19:23 | 40.83903 | 9.40394 | 2204 ft | 178 kts | 57° |
| 2026-04-28 19:24 | 40.84604 | 9.41728 | 1937 ft | 176 kts | 57° |
| 2026-04-28 19:24 | 40.85294 | 9.43042 | 1664 ft | 172 kts | 57° |
| 2026-04-28 19:24 | 40.85966 | 9.44321 | 1393 ft | 166 kts | 57° |
| 2026-04-28 19:24 | 40.86603 | 9.45535 | 1161 ft | 154 kts | 57° |
| 2026-04-28 19:25 | 40.87194 | 9.46660 | 923 ft | 144 kts | 58° |
| 2026-04-28 19:25 | 40.87744 | 9.47710 | 721 ft | 138 kts | 58° |
| 2026-04-28 19:25 | 40.88293 | 9.48756 | 515 ft | 136 kts | 58° |
| 2026-04-28 19:25 | 40.88829 | 9.49779 | 303 ft | 135 kts | 58° |
| 2026-04-28 19:26 | 40.89366 | 9.50805 | 94 ft | 136 kts | 58° |
| 2026-04-28 19:26 | 40.89863 | 9.51761 | 36 ft | 114 kts | 53° |
| 2026-04-28 19:26 | 40.90215 | 9.52431 | 33 ft | 64 kts | 56° |
| 2026-04-28 19:26 | 40.90372 | 9.52681 | 30 ft | 16 kts | 6° |
| 2026-04-28 19:27 | 40.90449 | 9.52626 | 30 ft | 13 kts | 282° |
| 2026-04-28 19:27 | 40.90451 | 9.52572 | 31 ft | 0 kts | 272° |
| 2026-04-28 19:27 | 40.90449 | 9.52500 | 31 ft | 20 kts | 257° |
| 2026-04-28 19:28 | 40.90373 | 9.52340 | 32 ft | 21 kts | 235° |
| 2026-04-28 19:28 | 40.90288 | 9.52181 | 33 ft | 21 kts | 234° |
| 2026-04-28 19:28 | 40.90212 | 9.52033 | 34 ft | 19 kts | 236° |
| 2026-04-28 19:28 | 40.90201 | 9.52011 | 35 ft | 0 kts | 236° |
| 2026-04-28 19:30 | 40.90192 | 9.51994 | 34 ft | 12 kts | 236° |
| 2026-04-28 19:30 | 40.90193 | 9.51841 | 35 ft | 16 kts | 306° |
| 2026-04-28 19:30 | 40.90216 | 9.51746 | 34 ft | 11 kts | 241° |
| 2026-04-28 19:30 | 40.90177 | 9.51672 | 36 ft | 9 kts | 235° |
| 2026-04-28 19:31 | 40.90145 | 9.51613 | 37 ft | 7 kts | 233° |
| 2026-04-28 19:31 | 40.90139 | 9.51569 | 37 ft | 4 kts | 297° |